sensor_id;sensor_type;location;lat;lon;timestamp;P1;durP1;ratioP1;P2;durP2;ratioP2
50779;SDS011;36748;37.428;-121.972;2022-09-09T00:04:46;7.53;;;5.10;;
50779;SDS011;36748;37.428;-121.972;2022-09-09T00:21:16;9.68;;;5.07;;
50779;SDS011;36748;37.428;-121.972;2022-09-09T00:23:44;9.70;;;5.43;;
50779;SDS011;36748;37.428;-121.972;2022-09-09T00:31:42;8.02;;;4.85;;
50779;SDS011;36748;37.428;-121.972;2022-09-09T00:34:12;7.15;;;5.05;;
50779;SDS011;36748;37.428;-121.972;2022-09-09T00:36:49;8.98;;;4.90;;
50779;SDS011;36748;37.428;-121.972;2022-09-09T00:42:54;8.68;;;4.65;;
50779;SDS011;36748;37.428;-121.972;2022-09-09T00:45:02;11.75;;;5.38;;
50779;SDS011;36748;37.428;-121.972;2022-09-09T00:47:49;10.00;;;5.60;;
50779;SDS011;36748;37.428;-121.972;2022-09-09T00:58:32;8.38;;;4.38;;
50779;SDS011;36748;37.428;-121.972;2022-09-09T01:01:07;9.65;;;5.30;;
50779;SDS011;36748;37.428;-121.972;2022-09-09T01:03:46;10.88;;;5.45;;
50779;SDS011;36748;37.428;-121.972;2022-09-09T01:06:30;10.82;;;4.88;;
50779;SDS011;36748;37.428;-121.972;2022-09-09T01:17:19;11.73;;;4.75;;
50779;SDS011;36748;37.428;-121.972;2022-09-09T01:22:33;12.50;;;4.93;;
50779;SDS011;36748;37.428;-121.972;2022-09-09T01:25:20;8.48;;;4.32;;
50779;SDS011;36748;37.428;-121.972;2022-09-09T01:27:51;6.78;;;4.00;;
50779;SDS011;36748;37.428;-121.972;2022-09-09T01:30:21;6.00;;;4.55;;
50779;SDS011;36748;37.428;-121.972;2022-09-09T01:32:53;10.48;;;4.45;;
50779;SDS011;36748;37.428;-121.972;2022-09-09T01:37:55;6.15;;;4.05;;
50779;SDS011;36748;37.428;-121.972;2022-09-09T01:40:23;8.68;;;4.07;;
50779;SDS011;36748;37.428;-121.972;2022-09-09T01:42:50;7.68;;;4.15;;
50779;SDS011;36748;37.428;-121.972;2022-09-09T01:45:16;6.75;;;3.97;;
50779;SDS011;36748;37.428;-121.972;2022-09-09T01:47:43;7.20;;;4.40;;
50779;SDS011;36748;37.428;-121.972;2022-09-09T01:50:10;7.68;;;4.50;;
50779;SDS011;36748;37.428;-121.972;2022-09-09T01:52:41;8.02;;;4.13;;
50779;SDS011;36748;37.428;-121.972;2022-09-09T01:55:08;8.10;;;4.07;;
50779;SDS011;36748;37.428;-121.972;2022-09-09T02:00:23;8.57;;;4.35;;
50779;SDS011;36748;37.428;-121.972;2022-09-09T02:05:38;8.18;;;3.88;;
50779;SDS011;36748;37.428;-121.972;2022-09-09T02:08:30;6.03;;;3.85;;
50779;SDS011;36748;37.428;-121.972;2022-09-09T02:11:06;6.65;;;3.72;;
50779;SDS011;36748;37.428;-121.972;2022-09-09T02:13:41;7.40;;;4.43;;
50779;SDS011;36748;37.428;-121.972;2022-09-09T02:16:15;7.47;;;3.97;;
50779;SDS011;36748;37.428;-121.972;2022-09-09T02:18:48;5.63;;;3.53;;
50779;SDS011;36748;37.428;-121.972;2022-09-09T02:21:17;6.70;;;4.07;;
50779;SDS011;36748;37.428;-121.972;2022-09-09T02:23:44;6.78;;;3.38;;
50779;SDS011;36748;37.428;-121.972;2022-09-09T02:26:12;6.82;;;3.85;;
50779;SDS011;36748;37.428;-121.972;2022-09-09T02:28:44;7.63;;;3.95;;
50779;SDS011;36748;37.428;-121.972;2022-09-09T02:31:12;5.30;;;3.55;;
50779;SDS011;36748;37.428;-121.972;2022-09-09T02:33:41;6.10;;;3.80;;
50779;SDS011;36748;37.428;-121.972;2022-09-09T02:36:10;6.38;;;3.53;;
50779;SDS011;36748;37.428;-121.972;2022-09-09T02:38:40;7.47;;;4.07;;
50779;SDS011;36748;37.428;-121.972;2022-09-09T02:41:11;5.43;;;3.80;;
50779;SDS011;36748;37.428;-121.972;2022-09-09T02:43:37;7.72;;;4.13;;
50779;SDS011;36748;37.428;-121.972;2022-09-09T02:46:16;6.22;;;3.83;;
50779;SDS011;36748;37.428;-121.972;2022-09-09T02:49:07;7.43;;;3.90;;
50779;SDS011;36748;37.428;-121.972;2022-09-09T02:51:39;5.72;;;3.50;;
50779;SDS011;36748;37.428;-121.972;2022-09-09T02:56:51;6.22;;;3.70;;
50779;SDS011;36748;37.428;-121.972;2022-09-09T02:59:22;7.85;;;4.10;;
50779;SDS011;36748;37.428;-121.972;2022-09-09T03:01:49;7.72;;;3.85;;
50779;SDS011;36748;37.428;-121.972;2022-09-09T03:04:15;8.10;;;3.97;;
50779;SDS011;36748;37.428;-121.972;2022-09-09T03:06:41;6.93;;;3.90;;
50779;SDS011;36748;37.428;-121.972;2022-09-09T03:09:08;7.95;;;3.97;;
50779;SDS011;36748;37.428;-121.972;2022-09-09T03:11:36;8.57;;;4.30;;
50779;SDS011;36748;37.428;-121.972;2022-09-09T03:14:03;6.65;;;3.78;;
50779;SDS011;36748;37.428;-121.972;2022-09-09T03:16:30;7.75;;;4.05;;
50779;SDS011;36748;37.428;-121.972;2022-09-09T03:18:56;7.35;;;4.40;;
50779;SDS011;36748;37.428;-121.972;2022-09-09T03:21:22;7.35;;;4.03;;
50779;SDS011;36748;37.428;-121.972;2022-09-09T03:23:48;6.93;;;4.10;;
50779;SDS011;36748;37.428;-121.972;2022-09-09T03:26:14;7.88;;;4.03;;
50779;SDS011;36748;37.428;-121.972;2022-09-09T03:28:41;7.45;;;4.07;;
50779;SDS011;36748;37.428;-121.972;2022-09-09T03:31:07;7.40;;;4.60;;
50779;SDS011;36748;37.428;-121.972;2022-09-09T03:33:38;7.85;;;4.18;;
50779;SDS011;36748;37.428;-121.972;2022-09-09T03:36:04;7.75;;;4.57;;
50779;SDS011;36748;37.428;-121.972;2022-09-09T03:38:31;7.65;;;4.20;;
50779;SDS011;36748;37.428;-121.972;2022-09-09T03:40:57;9.05;;;4.63;;
50779;SDS011;36748;37.428;-121.972;2022-09-09T03:43:24;7.53;;;4.00;;
50779;SDS011;36748;37.428;-121.972;2022-09-09T03:45:51;10.48;;;4.93;;
50779;SDS011;36748;37.428;-121.972;2022-09-09T03:48:18;6.80;;;3.90;;
50779;SDS011;36748;37.428;-121.972;2022-09-09T03:50:45;9.75;;;4.47;;
50779;SDS011;36748;37.428;-121.972;2022-09-09T03:53:12;7.75;;;4.53;;
50779;SDS011;36748;37.428;-121.972;2022-09-09T03:55:43;8.25;;;4.47;;
50779;SDS011;36748;37.428;-121.972;2022-09-09T03:58:18;13.13;;;5.00;;
50779;SDS011;36748;37.428;-121.972;2022-09-09T04:00:54;8.13;;;4.70;;
50779;SDS011;36748;37.428;-121.972;2022-09-09T04:03:22;9.65;;;4.57;;
50779;SDS011;36748;37.428;-121.972;2022-09-09T04:05:50;7.53;;;4.15;;
50779;SDS011;36748;37.428;-121.972;2022-09-09T04:08:20;10.10;;;4.65;;
50779;SDS011;36748;37.428;-121.972;2022-09-09T04:10:47;15.23;;;4.82;;
50779;SDS011;36748;37.428;-121.972;2022-09-09T04:13:15;18.60;;;6.45;;
50779;SDS011;36748;37.428;-121.972;2022-09-09T04:15:44;24.98;;;7.80;;
50779;SDS011;36748;37.428;-121.972;2022-09-09T04:18:24;25.25;;;7.80;;
50779;SDS011;36748;37.428;-121.972;2022-09-09T04:20:51;26.90;;;8.65;;
50779;SDS011;36748;37.428;-121.972;2022-09-09T04:23:18;22.38;;;8.45;;
50779;SDS011;36748;37.428;-121.972;2022-09-09T04:25:49;29.45;;;9.07;;
50779;SDS011;36748;37.428;-121.972;2022-09-09T04:28:17;28.77;;;8.88;;
50779;SDS011;36748;37.428;-121.972;2022-09-09T04:30:44;31.55;;;9.38;;
50779;SDS011;36748;37.428;-121.972;2022-09-09T04:33:10;28.85;;;9.23;;
50779;SDS011;36748;37.428;-121.972;2022-09-09T04:35:38;29.25;;;9.23;;
50779;SDS011;36748;37.428;-121.972;2022-09-09T04:38:05;25.50;;;8.68;;
50779;SDS011;36748;37.428;-121.972;2022-09-09T04:40:34;27.92;;;9.32;;
50779;SDS011;36748;37.428;-121.972;2022-09-09T04:43:01;26.08;;;8.30;;
50779;SDS011;36748;37.428;-121.972;2022-09-09T04:45:31;25.67;;;7.97;;
50779;SDS011;36748;37.428;-121.972;2022-09-09T04:47:58;30.35;;;8.90;;
50779;SDS011;36748;37.428;-121.972;2022-09-09T04:50:24;33.78;;;10.02;;
50779;SDS011;36748;37.428;-121.972;2022-09-09T04:52:51;35.70;;;9.70;;
50779;SDS011;36748;37.428;-121.972;2022-09-09T04:55:17;30.48;;;9.95;;
50779;SDS011;36748;37.428;-121.972;2022-09-09T04:57:43;31.42;;;9.68;;
50779;SDS011;36748;37.428;-121.972;2022-09-09T05:00:09;36.28;;;9.38;;
50779;SDS011;36748;37.428;-121.972;2022-09-09T05:05:38;33.92;;;10.25;;
50779;SDS011;36748;37.428;-121.972;2022-09-09T05:08:05;37.13;;;10.57;;
50779;SDS011;36748;37.428;-121.972;2022-09-09T05:10:33;33.67;;;10.13;;
50779;SDS011;36748;37.428;-121.972;2022-09-09T05:13:01;36.67;;;10.25;;
50779;SDS011;36748;37.428;-121.972;2022-09-09T05:15:28;33.75;;;10.48;;
50779;SDS011;36748;37.428;-121.972;2022-09-09T05:17:57;37.90;;;10.68;;
50779;SDS011;36748;37.428;-121.972;2022-09-09T05:20:27;31.05;;;9.38;;
50779;SDS011;36748;37.428;-121.972;2022-09-09T05:22:54;39.08;;;10.63;;
50779;SDS011;36748;37.428;-121.972;2022-09-09T05:25:20;34.28;;;9.88;;
50779;SDS011;36748;37.428;-121.972;2022-09-09T05:27:47;39.92;;;10.25;;
50779;SDS011;36748;37.428;-121.972;2022-09-09T05:30:14;31.98;;;10.07;;
50779;SDS011;36748;37.428;-121.972;2022-09-09T05:32:41;41.17;;;10.35;;
50779;SDS011;36748;37.428;-121.972;2022-09-09T05:35:08;34.97;;;10.00;;
50779;SDS011;36748;37.428;-121.972;2022-09-09T05:37:35;40.75;;;10.35;;
50779;SDS011;36748;37.428;-121.972;2022-09-09T05:40:01;35.58;;;10.50;;
50779;SDS011;36748;37.428;-121.972;2022-09-09T05:42:31;33.15;;;9.85;;
50779;SDS011;36748;37.428;-121.972;2022-09-09T05:44:57;36.30;;;10.73;;
50779;SDS011;36748;37.428;-121.972;2022-09-09T05:47:24;36.63;;;10.13;;
50779;SDS011;36748;37.428;-121.972;2022-09-09T05:49:53;37.08;;;11.00;;
50779;SDS011;36748;37.428;-121.972;2022-09-09T05:52:39;38.00;;;10.90;;
50779;SDS011;36748;37.428;-121.972;2022-09-09T05:55:06;36.88;;;10.88;;
50779;SDS011;36748;37.428;-121.972;2022-09-09T05:57:32;33.67;;;10.15;;
50779;SDS011;36748;37.428;-121.972;2022-09-09T05:59:59;39.30;;;10.57;;
50779;SDS011;36748;37.428;-121.972;2022-09-09T06:02:25;36.22;;;10.00;;
50779;SDS011;36748;37.428;-121.972;2022-09-09T06:04:52;35.47;;;10.57;;
50779;SDS011;36748;37.428;-121.972;2022-09-09T06:07:18;37.25;;;10.38;;
50779;SDS011;36748;37.428;-121.972;2022-09-09T06:09:45;38.10;;;10.65;;
50779;SDS011;36748;37.428;-121.972;2022-09-09T06:12:11;38.53;;;10.82;;
50779;SDS011;36748;37.428;-121.972;2022-09-09T06:14:37;36.97;;;10.90;;
50779;SDS011;36748;37.428;-121.972;2022-09-09T06:17:03;39.08;;;11.07;;
50779;SDS011;36748;37.428;-121.972;2022-09-09T06:19:30;35.50;;;10.18;;
50779;SDS011;36748;37.428;-121.972;2022-09-09T06:21:56;45.15;;;11.57;;
50779;SDS011;36748;37.428;-121.972;2022-09-09T06:24:22;41.38;;;11.10;;
50779;SDS011;36748;37.428;-121.972;2022-09-09T06:26:48;44.38;;;12.00;;
50779;SDS011;36748;37.428;-121.972;2022-09-09T06:29:15;41.38;;;12.20;;
50779;SDS011;36748;37.428;-121.972;2022-09-09T06:31:41;41.88;;;12.13;;
50779;SDS011;36748;37.428;-121.972;2022-09-09T06:34:07;36.80;;;11.02;;
50779;SDS011;36748;37.428;-121.972;2022-09-09T06:36:35;39.60;;;10.57;;
50779;SDS011;36748;37.428;-121.972;2022-09-09T06:39:03;42.40;;;11.35;;
50779;SDS011;36748;37.428;-121.972;2022-09-09T06:41:30;44.33;;;10.52;;
50779;SDS011;36748;37.428;-121.972;2022-09-09T06:43:58;35.30;;;9.95;;
50779;SDS011;36748;37.428;-121.972;2022-09-09T06:46:25;37.58;;;10.27;;
50779;SDS011;36748;37.428;-121.972;2022-09-09T06:48:53;34.28;;;10.05;;
50779;SDS011;36748;37.428;-121.972;2022-09-09T06:51:25;34.97;;;10.55;;
50779;SDS011;36748;37.428;-121.972;2022-09-09T06:53:57;36.03;;;10.77;;
50779;SDS011;36748;37.428;-121.972;2022-09-09T06:56:25;33.95;;;9.90;;
50779;SDS011;36748;37.428;-121.972;2022-09-09T06:58:53;34.92;;;10.40;;
50779;SDS011;36748;37.428;-121.972;2022-09-09T07:01:22;33.00;;;9.38;;
50779;SDS011;36748;37.428;-121.972;2022-09-09T07:03:51;35.42;;;10.07;;
50779;SDS011;36748;37.428;-121.972;2022-09-09T07:06:23;37.38;;;10.07;;
50779;SDS011;36748;37.428;-121.972;2022-09-09T07:08:52;41.58;;;10.60;;
50779;SDS011;36748;37.428;-121.972;2022-09-09T07:11:20;35.83;;;10.35;;
50779;SDS011;36748;37.428;-121.972;2022-09-09T07:13:47;40.22;;;11.50;;
50779;SDS011;36748;37.428;-121.972;2022-09-09T07:16:18;33.35;;;10.93;;
50779;SDS011;36748;37.428;-121.972;2022-09-09T07:18:45;31.48;;;10.73;;
50779;SDS011;36748;37.428;-121.972;2022-09-09T07:21:12;42.20;;;11.52;;
50779;SDS011;36748;37.428;-121.972;2022-09-09T07:23:40;38.85;;;10.48;;
50779;SDS011;36748;37.428;-121.972;2022-09-09T07:26:10;38.30;;;11.27;;
50779;SDS011;36748;37.428;-121.972;2022-09-09T07:28:39;40.65;;;11.95;;
50779;SDS011;36748;37.428;-121.972;2022-09-09T07:31:06;35.80;;;10.43;;
50779;SDS011;36748;37.428;-121.972;2022-09-09T07:33:35;40.10;;;11.98;;
50779;SDS011;36748;37.428;-121.972;2022-09-09T07:36:05;41.30;;;11.82;;
50779;SDS011;36748;37.428;-121.972;2022-09-09T07:38:33;35.45;;;10.25;;
50779;SDS011;36748;37.428;-121.972;2022-09-09T07:41:07;38.65;;;11.07;;
50779;SDS011;36748;37.428;-121.972;2022-09-09T07:43:41;42.45;;;11.13;;
50779;SDS011;36748;37.428;-121.972;2022-09-09T07:46:08;38.45;;;11.27;;
50779;SDS011;36748;37.428;-121.972;2022-09-09T07:48:34;43.17;;;11.40;;
50779;SDS011;36748;37.428;-121.972;2022-09-09T07:51:07;43.30;;;11.65;;
50779;SDS011;36748;37.428;-121.972;2022-09-09T07:53:37;37.42;;;10.45;;
50779;SDS011;36748;37.428;-121.972;2022-09-09T07:56:07;35.70;;;11.10;;
50779;SDS011;36748;37.428;-121.972;2022-09-09T07:58:36;37.60;;;11.07;;
50779;SDS011;36748;37.428;-121.972;2022-09-09T08:01:12;31.33;;;9.90;;
50779;SDS011;36748;37.428;-121.972;2022-09-09T08:03:39;40.50;;;11.02;;
50779;SDS011;36748;37.428;-121.972;2022-09-09T08:06:07;36.35;;;10.35;;
50779;SDS011;36748;37.428;-121.972;2022-09-09T08:08:34;31.92;;;10.18;;
50779;SDS011;36748;37.428;-121.972;2022-09-09T08:11:05;37.88;;;10.63;;
50779;SDS011;36748;37.428;-121.972;2022-09-09T08:13:33;33.22;;;10.70;;
50779;SDS011;36748;37.428;-121.972;2022-09-09T08:16:10;34.88;;;10.13;;
50779;SDS011;36748;37.428;-121.972;2022-09-09T08:18:40;43.05;;;10.48;;
50779;SDS011;36748;37.428;-121.972;2022-09-09T08:21:11;37.40;;;10.10;;
50779;SDS011;36748;37.428;-121.972;2022-09-09T08:23:39;37.03;;;10.43;;
50779;SDS011;36748;37.428;-121.972;2022-09-09T08:26:10;40.65;;;10.70;;
50779;SDS011;36748;37.428;-121.972;2022-09-09T08:28:39;35.58;;;9.90;;
50779;SDS011;36748;37.428;-121.972;2022-09-09T08:31:16;41.30;;;11.38;;
50779;SDS011;36748;37.428;-121.972;2022-09-09T08:36:13;38.55;;;10.73;;
50779;SDS011;36748;37.428;-121.972;2022-09-09T08:38:42;43.88;;;12.00;;
50779;SDS011;36748;37.428;-121.972;2022-09-09T08:49:52;37.38;;;10.73;;
50779;SDS011;36748;37.428;-121.972;2022-09-09T08:52:25;42.97;;;11.75;;
50779;SDS011;36748;37.428;-121.972;2022-09-09T08:54:53;37.10;;;10.80;;
50779;SDS011;36748;37.428;-121.972;2022-09-09T08:57:25;46.67;;;12.30;;
50779;SDS011;36748;37.428;-121.972;2022-09-09T08:59:52;41.58;;;11.07;;
50779;SDS011;36748;37.428;-121.972;2022-09-09T09:13:07;47.05;;;11.38;;
50779;SDS011;36748;37.428;-121.972;2022-09-09T09:15:39;36.67;;;10.57;;
50779;SDS011;36748;37.428;-121.972;2022-09-09T09:18:07;38.03;;;10.43;;
50779;SDS011;36748;37.428;-121.972;2022-09-09T09:20:38;48.95;;;11.52;;
50779;SDS011;36748;37.428;-121.972;2022-09-09T09:23:23;34.03;;;9.63;;
50779;SDS011;36748;37.428;-121.972;2022-09-09T09:26:00;49.08;;;10.73;;
50779;SDS011;36748;37.428;-121.972;2022-09-09T09:28:29;40.60;;;11.57;;
50779;SDS011;36748;37.428;-121.972;2022-09-09T09:30:58;43.72;;;11.30;;
50779;SDS011;36748;37.428;-121.972;2022-09-09T09:35:59;39.97;;;10.68;;
50779;SDS011;36748;37.428;-121.972;2022-09-09T09:38:27;45.88;;;11.68;;
50779;SDS011;36748;37.428;-121.972;2022-09-09T09:40:58;36.22;;;10.82;;
50779;SDS011;36748;37.428;-121.972;2022-09-09T09:43:29;41.03;;;10.52;;
50779;SDS011;36748;37.428;-121.972;2022-09-09T09:45:57;43.17;;;10.77;;
50779;SDS011;36748;37.428;-121.972;2022-09-09T09:48:23;41.85;;;11.75;;
50779;SDS011;36748;37.428;-121.972;2022-09-09T09:50:51;46.28;;;11.50;;
50779;SDS011;36748;37.428;-121.972;2022-09-09T09:53:32;42.35;;;10.65;;
50779;SDS011;36748;37.428;-121.972;2022-09-09T09:56:04;48.53;;;11.05;;
50779;SDS011;36748;37.428;-121.972;2022-09-09T10:01:24;41.13;;;11.10;;
50779;SDS011;36748;37.428;-121.972;2022-09-09T10:03:58;40.83;;;10.98;;
50779;SDS011;36748;37.428;-121.972;2022-09-09T10:06:30;41.55;;;11.00;;
50779;SDS011;36748;37.428;-121.972;2022-09-09T10:09:02;39.60;;;10.07;;
50779;SDS011;36748;37.428;-121.972;2022-09-09T10:19:35;41.53;;;11.02;;
50779;SDS011;36748;37.428;-121.972;2022-09-09T10:27:26;43.35;;;11.02;;
50779;SDS011;36748;37.428;-121.972;2022-09-09T10:30:12;42.00;;;11.32;;
50779;SDS011;36748;37.428;-121.972;2022-09-09T10:32:58;41.50;;;10.50;;
50779;SDS011;36748;37.428;-121.972;2022-09-09T10:35:59;41.13;;;10.65;;
50779;SDS011;36748;37.428;-121.972;2022-09-09T10:39:06;44.03;;;10.63;;
50779;SDS011;36748;37.428;-121.972;2022-09-09T10:42:05;40.92;;;10.57;;
50779;SDS011;36748;37.428;-121.972;2022-09-09T10:52:38;42.30;;;10.85;;
50779;SDS011;36748;37.428;-121.972;2022-09-09T10:55:16;39.33;;;10.93;;
50779;SDS011;36748;37.428;-121.972;2022-09-09T10:57:46;32.58;;;10.05;;
50779;SDS011;36748;37.428;-121.972;2022-09-09T11:03:37;40.22;;;11.02;;
50779;SDS011;36748;37.428;-121.972;2022-09-09T11:06:13;43.92;;;11.32;;
50779;SDS011;36748;37.428;-121.972;2022-09-09T11:08:42;41.80;;;11.90;;
50779;SDS011;36748;37.428;-121.972;2022-09-09T11:16:28;36.63;;;10.02;;
50779;SDS011;36748;37.428;-121.972;2022-09-09T11:19:00;40.38;;;11.10;;
50779;SDS011;36748;37.428;-121.972;2022-09-09T11:21:37;45.53;;;11.38;;
50779;SDS011;36748;37.428;-121.972;2022-09-09T11:24:52;47.22;;;11.55;;
50779;SDS011;36748;37.428;-121.972;2022-09-09T11:27:05;39.40;;;10.30;;
50779;SDS011;36748;37.428;-121.972;2022-09-09T11:38:09;38.05;;;10.73;;
50779;SDS011;36748;37.428;-121.972;2022-09-09T11:40:58;41.83;;;10.77;;
50779;SDS011;36748;37.428;-121.972;2022-09-09T11:45:59;43.60;;;11.13;;
50779;SDS011;36748;37.428;-121.972;2022-09-09T11:48:34;43.13;;;11.85;;
50779;SDS011;36748;37.428;-121.972;2022-09-09T11:51:07;40.50;;;10.95;;
50779;SDS011;36748;37.428;-121.972;2022-09-09T11:53:53;49.78;;;12.05;;
50779;SDS011;36748;37.428;-121.972;2022-09-09T12:01:33;41.42;;;10.60;;
50779;SDS011;36748;37.428;-121.972;2022-09-09T12:06:45;38.97;;;11.05;;
50779;SDS011;36748;37.428;-121.972;2022-09-09T12:17:28;47.65;;;11.82;;
50779;SDS011;36748;37.428;-121.972;2022-09-09T12:20:13;51.28;;;11.77;;
50779;SDS011;36748;37.428;-121.972;2022-09-09T12:28:15;44.42;;;12.07;;
50779;SDS011;36748;37.428;-121.972;2022-09-09T12:30:55;59.53;;;12.73;;
50779;SDS011;36748;37.428;-121.972;2022-09-09T12:33:22;51.35;;;11.80;;
50779;SDS011;36748;37.428;-121.972;2022-09-09T12:35:58;57.00;;;12.43;;
50779;SDS011;36748;37.428;-121.972;2022-09-09T12:38:28;45.47;;;11.57;;
50779;SDS011;36748;37.428;-121.972;2022-09-09T12:40:58;47.78;;;11.27;;
50779;SDS011;36748;37.428;-121.972;2022-09-09T12:43:26;52.72;;;12.38;;
50779;SDS011;36748;37.428;-121.972;2022-09-09T12:45:54;48.20;;;11.23;;
50779;SDS011;36748;37.428;-121.972;2022-09-09T12:48:36;45.17;;;11.77;;
50779;SDS011;36748;37.428;-121.972;2022-09-09T12:51:46;46.33;;;11.90;;
50779;SDS011;36748;37.428;-121.972;2022-09-09T12:53:54;40.10;;;10.45;;
50779;SDS011;36748;37.428;-121.972;2022-09-09T12:56:22;39.95;;;10.43;;
50779;SDS011;36748;37.428;-121.972;2022-09-09T12:58:52;44.80;;;11.02;;
50779;SDS011;36748;37.428;-121.972;2022-09-09T13:01:26;42.42;;;10.98;;
50779;SDS011;36748;37.428;-121.972;2022-09-09T13:03:54;49.30;;;11.20;;
50779;SDS011;36748;37.428;-121.972;2022-09-09T13:06:22;45.70;;;11.35;;
50779;SDS011;36748;37.428;-121.972;2022-09-09T13:08:53;45.72;;;11.10;;
50779;SDS011;36748;37.428;-121.972;2022-09-09T13:11:25;35.80;;;10.27;;
50779;SDS011;36748;37.428;-121.972;2022-09-09T13:13:54;44.00;;;11.02;;
50779;SDS011;36748;37.428;-121.972;2022-09-09T13:16:29;43.17;;;11.23;;
50779;SDS011;36748;37.428;-121.972;2022-09-09T13:19:00;45.33;;;11.07;;
50779;SDS011;36748;37.428;-121.972;2022-09-09T13:21:35;38.47;;;10.75;;
50779;SDS011;36748;37.428;-121.972;2022-09-09T13:24:06;41.70;;;11.57;;
50779;SDS011;36748;37.428;-121.972;2022-09-09T13:26:54;41.53;;;10.48;;
50779;SDS011;36748;37.428;-121.972;2022-09-09T13:29:25;45.35;;;11.00;;
50779;SDS011;36748;37.428;-121.972;2022-09-09T13:31:51;40.65;;;11.38;;
50779;SDS011;36748;37.428;-121.972;2022-09-09T13:34:29;48.15;;;11.82;;
50779;SDS011;36748;37.428;-121.972;2022-09-09T13:37:01;47.60;;;11.65;;
50779;SDS011;36748;37.428;-121.972;2022-09-09T13:39:32;42.97;;;11.35;;
50779;SDS011;36748;37.428;-121.972;2022-09-09T13:42:00;44.20;;;12.52;;
50779;SDS011;36748;37.428;-121.972;2022-09-09T13:44:29;40.70;;;10.70;;
50779;SDS011;36748;37.428;-121.972;2022-09-09T13:47:04;44.38;;;10.88;;
50779;SDS011;36748;37.428;-121.972;2022-09-09T13:49:32;36.20;;;10.97;;
50779;SDS011;36748;37.428;-121.972;2022-09-09T13:52:12;44.65;;;12.20;;
50779;SDS011;36748;37.428;-121.972;2022-09-09T13:54:39;51.80;;;11.90;;
50779;SDS011;36748;37.428;-121.972;2022-09-09T13:57:13;44.63;;;11.13;;
50779;SDS011;36748;37.428;-121.972;2022-09-09T13:59:50;41.13;;;11.30;;
50779;SDS011;36748;37.428;-121.972;2022-09-09T14:02:18;45.80;;;11.73;;
50779;SDS011;36748;37.428;-121.972;2022-09-09T14:04:46;40.55;;;10.90;;
50779;SDS011;36748;37.428;-121.972;2022-09-09T14:07:16;48.80;;;12.15;;
50779;SDS011;36748;37.428;-121.972;2022-09-09T14:09:44;42.22;;;11.05;;
50779;SDS011;36748;37.428;-121.972;2022-09-09T14:12:15;49.80;;;12.70;;
50779;SDS011;36748;37.428;-121.972;2022-09-09T14:14:41;45.53;;;11.43;;
50779;SDS011;36748;37.428;-121.972;2022-09-09T14:17:09;50.05;;;12.52;;
50779;SDS011;36748;37.428;-121.972;2022-09-09T14:19:35;46.10;;;11.02;;
50779;SDS011;36748;37.428;-121.972;2022-09-09T14:22:03;42.78;;;10.50;;
50779;SDS011;36748;37.428;-121.972;2022-09-09T14:24:29;44.53;;;11.20;;
50779;SDS011;36748;37.428;-121.972;2022-09-09T14:26:56;46.92;;;11.35;;
50779;SDS011;36748;37.428;-121.972;2022-09-09T14:29:22;58.55;;;12.77;;
50779;SDS011;36748;37.428;-121.972;2022-09-09T14:31:50;52.50;;;12.35;;
50779;SDS011;36748;37.428;-121.972;2022-09-09T14:34:16;60.50;;;13.20;;
50779;SDS011;36748;37.428;-121.972;2022-09-09T14:36:42;54.90;;;13.00;;
50779;SDS011;36748;37.428;-121.972;2022-09-09T14:39:09;54.47;;;12.73;;
50779;SDS011;36748;37.428;-121.972;2022-09-09T14:41:36;54.50;;;13.45;;
50779;SDS011;36748;37.428;-121.972;2022-09-09T14:44:03;51.03;;;11.35;;
50779;SDS011;36748;37.428;-121.972;2022-09-09T14:46:29;62.22;;;13.02;;
50779;SDS011;36748;37.428;-121.972;2022-09-09T14:48:56;55.67;;;12.77;;
50779;SDS011;36748;37.428;-121.972;2022-09-09T14:51:23;50.60;;;12.02;;
50779;SDS011;36748;37.428;-121.972;2022-09-09T14:53:54;43.67;;;10.82;;
50779;SDS011;36748;37.428;-121.972;2022-09-09T14:56:23;52.10;;;12.13;;
50779;SDS011;36748;37.428;-121.972;2022-09-09T14:58:55;45.05;;;11.68;;
50779;SDS011;36748;37.428;-121.972;2022-09-09T15:01:22;46.17;;;12.05;;
50779;SDS011;36748;37.428;-121.972;2022-09-09T15:03:52;47.95;;;12.32;;
50779;SDS011;36748;37.428;-121.972;2022-09-09T15:06:20;51.60;;;11.98;;
50779;SDS011;36748;37.428;-121.972;2022-09-09T15:08:49;41.88;;;11.13;;
50779;SDS011;36748;37.428;-121.972;2022-09-09T15:11:16;36.58;;;10.10;;
50779;SDS011;36748;37.428;-121.972;2022-09-09T15:13:42;37.25;;;10.55;;
50779;SDS011;36748;37.428;-121.972;2022-09-09T15:16:10;37.97;;;10.73;;
50779;SDS011;36748;37.428;-121.972;2022-09-09T15:18:40;36.15;;;10.00;;
50779;SDS011;36748;37.428;-121.972;2022-09-09T15:21:10;37.97;;;10.80;;
50779;SDS011;36748;37.428;-121.972;2022-09-09T15:23:37;43.22;;;10.80;;
50779;SDS011;36748;37.428;-121.972;2022-09-09T15:26:03;36.80;;;9.98;;
50779;SDS011;36748;37.428;-121.972;2022-09-09T15:28:31;40.80;;;10.23;;
50779;SDS011;36748;37.428;-121.972;2022-09-09T15:31:04;35.03;;;9.73;;
50779;SDS011;36748;37.428;-121.972;2022-09-09T15:33:32;37.83;;;10.23;;
50779;SDS011;36748;37.428;-121.972;2022-09-09T15:35:59;31.95;;;9.45;;
50779;SDS011;36748;37.428;-121.972;2022-09-09T15:38:25;38.28;;;9.82;;
50779;SDS011;36748;37.428;-121.972;2022-09-09T15:40:55;35.38;;;9.93;;
50779;SDS011;36748;37.428;-121.972;2022-09-09T15:43:22;29.70;;;9.05;;
50779;SDS011;36748;37.428;-121.972;2022-09-09T15:45:49;33.50;;;9.35;;
50779;SDS011;36748;37.428;-121.972;2022-09-09T15:48:19;31.88;;;9.70;;
50779;SDS011;36748;37.428;-121.972;2022-09-09T15:50:50;29.02;;;9.02;;
50779;SDS011;36748;37.428;-121.972;2022-09-09T15:53:28;40.50;;;9.45;;
50779;SDS011;36748;37.428;-121.972;2022-09-09T15:55:55;34.45;;;9.68;;
50779;SDS011;36748;37.428;-121.972;2022-09-09T15:58:21;34.92;;;9.57;;
50779;SDS011;36748;37.428;-121.972;2022-09-09T16:00:47;30.67;;;8.93;;
50779;SDS011;36748;37.428;-121.972;2022-09-09T16:03:13;27.65;;;8.52;;
50779;SDS011;36748;37.428;-121.972;2022-09-09T16:05:40;32.17;;;9.23;;
50779;SDS011;36748;37.428;-121.972;2022-09-09T16:08:06;32.90;;;9.80;;
50779;SDS011;36748;37.428;-121.972;2022-09-09T16:10:32;36.58;;;9.20;;
50779;SDS011;36748;37.428;-121.972;2022-09-09T16:12:58;30.98;;;9.13;;
50779;SDS011;36748;37.428;-121.972;2022-09-09T16:15:25;24.92;;;8.65;;
50779;SDS011;36748;37.428;-121.972;2022-09-09T16:17:53;32.30;;;9.50;;
50779;SDS011;36748;37.428;-121.972;2022-09-09T16:20:19;34.60;;;8.65;;
50779;SDS011;36748;37.428;-121.972;2022-09-09T16:22:45;31.38;;;9.77;;
50779;SDS011;36748;37.428;-121.972;2022-09-09T16:25:11;31.13;;;9.23;;
50779;SDS011;36748;37.428;-121.972;2022-09-09T16:27:37;31.77;;;9.35;;
50779;SDS011;36748;37.428;-121.972;2022-09-09T16:30:04;30.80;;;8.85;;
50779;SDS011;36748;37.428;-121.972;2022-09-09T16:32:30;28.73;;;8.50;;
50779;SDS011;36748;37.428;-121.972;2022-09-09T16:34:56;36.53;;;9.52;;
50779;SDS011;36748;37.428;-121.972;2022-09-09T16:37:23;33.38;;;8.55;;